createdAt,value
2022-08-17T00:00:03.117Z,36.55
2022-08-17T00:02:47.864Z,35.76
2022-08-17T00:05:32.548Z,36.56
2022-08-17T00:08:17.508Z,36.43
2022-08-17T00:11:02.226Z,35.96
2022-08-17T00:13:46.990Z,35.54
2022-08-17T00:16:56.397Z,35.69
2022-08-17T00:19:36.657Z,35.26
2022-08-17T00:22:34.726Z,34.34
2022-08-17T00:25:20.869Z,34.75
2022-08-17T00:28:05.750Z,34.17
2022-08-17T00:30:53.344Z,34.79
2022-08-17T00:33:38.603Z,35.47
2022-08-17T00:36:23.295Z,36.48
2022-08-17T00:39:08.065Z,35.71
2022-08-17T00:41:52.786Z,36.20
2022-08-17T00:44:37.525Z,37.18
2022-08-17T00:47:22.514Z,36.95
2022-08-17T00:50:07.204Z,37.53
2022-08-17T00:52:52.268Z,38.41
2022-08-17T00:55:37.370Z,38.00
2022-08-17T00:58:30.452Z,37.60
2022-08-17T01:01:22.077Z,36.75
2022-08-17T01:04:07.232Z,36.16
2022-08-17T01:06:52.203Z,36.54
2022-08-17T01:09:36.946Z,35.97
2022-08-17T01:12:21.774Z,36.27
2022-08-17T01:15:06.424Z,36.61
2022-08-17T01:17:51.224Z,36.94
2022-08-17T01:20:47.946Z,37.56
2022-08-17T01:23:33.279Z,36.85
2022-08-17T01:26:17.949Z,37.18
2022-08-17T01:29:02.856Z,37.56
2022-08-17T01:31:47.576Z,36.63
2022-08-17T01:34:42.460Z,36.45
2022-08-17T01:37:28.333Z,36.09
2022-08-17T01:40:13.190Z,38.47
2022-08-17T01:42:58.393Z,37.99
2022-08-17T01:45:43.337Z,38.39
2022-08-17T01:48:28.154Z,36.22
2022-08-17T01:51:12.957Z,36.37
2022-08-17T01:53:57.810Z,37.47
2022-08-17T01:56:42.953Z,35.93
2022-08-17T01:59:27.705Z,35.60
2022-08-17T02:02:12.517Z,36.31
2022-08-17T02:05:16.674Z,37.09
2022-08-17T02:08:01.299Z,37.46
2022-08-17T02:10:47.178Z,36.37
2022-08-17T02:13:32.463Z,36.54
2022-08-17T02:16:17.097Z,36.83
2022-08-17T02:19:01.852Z,37.24
2022-08-17T02:21:46.417Z,38.54
2022-08-17T02:24:58.279Z,38.53
2022-08-17T02:27:36.123Z,37.86
2022-08-17T02:31:01.946Z,38.16
2022-08-17T02:33:41.637Z,38.57
2022-08-17T02:36:27.576Z,37.72
2022-08-17T02:39:12.343Z,37.86
2022-08-17T02:41:57.077Z,38.58
2022-08-17T02:44:41.785Z,39.14
2022-08-17T02:47:26.585Z,38.12
2022-08-17T02:50:11.323Z,37.62
2022-08-17T02:53:01.778Z,37.94
2022-08-17T02:55:47.664Z,38.58
2022-08-17T02:58:35.777Z,38.81
2022-08-17T03:01:21.177Z,38.32
2022-08-17T03:04:06.400Z,37.44
2022-08-17T03:06:51.146Z,37.07
2022-08-17T03:09:35.853Z,37.41
2022-08-17T03:12:20.418Z,37.62
2022-08-17T03:15:05.085Z,37.91
2022-08-17T03:17:49.883Z,38.17
2022-08-17T03:20:34.762Z,38.52
2022-08-17T03:23:23.985Z,39.34
2022-08-17T03:26:12.269Z,38.92
2022-08-17T03:29:00.535Z,38.87
2022-08-17T03:31:45.190Z,39.47
2022-08-17T03:34:29.961Z,38.97
2022-08-17T03:37:14.957Z,38.65
2022-08-17T03:39:59.593Z,39.72
2022-08-17T03:42:44.756Z,39.21
2022-08-17T03:45:29.448Z,40.18
2022-08-17T03:48:18.140Z,41.25
2022-08-17T03:51:02.990Z,40.03
2022-08-17T03:53:47.604Z,39.05
2022-08-17T03:56:32.375Z,39.58
2022-08-17T03:59:21.055Z,40.78
2022-08-17T04:02:07.253Z,39.94
2022-08-17T04:04:52.225Z,40.24
2022-08-17T04:07:37.581Z,39.29
2022-08-17T04:10:25.989Z,40.10
2022-08-17T04:13:11.572Z,38.24
2022-08-17T04:15:56.406Z,39.19
2022-08-17T04:18:41.563Z,39.53
2022-08-17T04:21:26.535Z,40.44
2022-08-17T04:24:11.193Z,39.77
2022-08-17T04:26:56.099Z,39.94
2022-08-17T04:29:55.072Z,40.17
2022-08-17T04:33:03.493Z,38.33
2022-08-17T04:35:45.696Z,41.07
2022-08-17T04:38:30.402Z,40.15
2022-08-17T04:41:15.138Z,38.32
2022-08-17T04:43:59.805Z,39.94
2022-08-17T04:46:44.680Z,39.56
2022-08-17T04:49:29.518Z,37.99
2022-08-17T04:52:29.845Z,37.25
2022-08-17T04:55:19.263Z,37.73
2022-08-17T04:58:04.085Z,38.55
2022-08-17T05:00:48.850Z,39.18
2022-08-17T05:03:33.959Z,38.75
2022-08-17T05:06:18.712Z,39.95
2022-08-17T05:09:03.507Z,39.42
2022-08-17T05:11:48.362Z,38.53
2022-08-17T05:14:33.983Z,37.87
2022-08-17T05:17:18.946Z,36.92
2022-08-17T05:20:03.658Z,37.43
2022-08-17T05:22:48.446Z,37.29
2022-08-17T05:25:34.564Z,38.57
2022-08-17T05:28:23.507Z,39.06
2022-08-17T05:31:09.384Z,38.25
2022-08-17T05:33:54.183Z,38.15
2022-08-17T05:36:43.442Z,37.97
2022-08-17T05:39:29.481Z,38.08
2022-08-17T05:42:15.908Z,39.02
2022-08-17T05:45:00.837Z,38.36
2022-08-17T05:47:45.680Z,39.45
2022-08-17T05:50:30.935Z,38.61
2022-08-17T05:53:15.658Z,38.21
2022-08-17T05:56:00.478Z,37.79
2022-08-17T05:58:45.158Z,38.57
2022-08-17T06:01:30.138Z,40.93
2022-08-17T06:04:15.878Z,41.38
2022-08-17T06:07:00.679Z,39.36
2022-08-17T06:09:45.453Z,39.84
2022-08-17T06:12:30.209Z,38.40
2022-08-17T06:15:16.488Z,39.21
2022-08-17T06:18:01.311Z,37.68
2022-08-17T06:20:46.161Z,39.35
2022-08-17T06:23:30.912Z,39.35
2022-08-17T06:26:15.782Z,37.55
2022-08-17T06:29:00.566Z,39.77
2022-08-17T06:31:45.343Z,38.95
2022-08-17T06:34:30.158Z,37.57
2022-08-17T06:37:15.027Z,37.60
2022-08-17T06:39:59.903Z,36.31
2022-08-17T06:43:02.358Z,36.88
2022-08-17T06:45:49.620Z,37.20
2022-08-17T06:48:34.416Z,33.61
2022-08-17T06:51:19.202Z,33.43
2022-08-17T06:54:04.009Z,32.69
2022-08-17T06:56:53.694Z,32.27
2022-08-17T06:59:55.163Z,32.09
2022-08-17T07:02:51.324Z,30.67
2022-08-17T07:05:38.810Z,28.34
2022-08-17T07:08:29.679Z,25.40
2022-08-17T07:11:16.398Z,25.38
2022-08-17T07:14:01.268Z,26.65
2022-08-17T07:16:46.064Z,24.62
2022-08-17T07:19:30.800Z,23.09
2022-08-17T07:22:15.800Z,21.21
2022-08-17T07:25:00.667Z,19.67
2022-08-17T07:27:45.383Z,22.11
2022-08-17T07:30:30.163Z,21.36
2022-08-17T07:33:15.410Z,22.63
2022-08-17T07:36:00.191Z,22.66
2022-08-17T07:38:45.063Z,25.01
2022-08-17T07:41:53.402Z,26.59
2022-08-17T07:44:34.896Z,27.53
2022-08-17T07:47:20.660Z,28.47
2022-08-17T07:50:05.437Z,29.84
2022-08-17T07:52:51.714Z,30.02
2022-08-17T07:55:37.352Z,30.04
2022-08-17T07:58:22.137Z,30.99
2022-08-17T08:01:06.872Z,31.80
2022-08-17T08:03:52.752Z,31.30
2022-08-17T08:06:38.079Z,31.25
2022-08-17T08:09:22.830Z,30.58
2022-08-17T08:12:07.636Z,30.34
2022-08-17T08:15:00.946Z,30.61
2022-08-17T08:17:45.668Z,31.91
2022-08-17T08:20:51.029Z,33.05
2022-08-17T08:23:35.415Z,31.31
2022-08-17T08:26:20.269Z,31.80
2022-08-17T08:29:05.111Z,31.21
2022-08-17T08:31:49.889Z,32.19
2022-08-17T08:35:00.559Z,32.23
2022-08-17T08:37:42.991Z,31.35
2022-08-17T08:40:28.622Z,32.21
2022-08-17T08:43:13.419Z,33.01
2022-08-17T08:45:58.534Z,32.28
2022-08-17T08:48:56.564Z,31.89
2022-08-17T08:51:45.776Z,31.43
2022-08-17T08:54:30.423Z,30.53
2022-08-17T08:57:26.878Z,31.40
2022-08-17T09:00:14.002Z,30.75
2022-08-17T09:02:58.904Z,30.72
2022-08-17T09:05:43.562Z,31.46
2022-08-17T09:08:28.210Z,30.80
2022-08-17T09:11:12.791Z,30.85
2022-08-17T09:13:57.503Z,31.04
2022-08-17T09:16:42.097Z,30.84
2022-08-17T09:19:26.861Z,31.20
2022-08-17T09:22:11.640Z,31.23
2022-08-17T09:24:56.385Z,30.63
2022-08-17T09:27:41.244Z,31.33
2022-08-17T09:30:25.958Z,31.08
2022-08-17T09:33:10.807Z,31.89
2022-08-17T09:35:55.573Z,31.27
2022-08-17T09:38:40.306Z,32.43
2022-08-17T09:41:25.113Z,33.00
2022-08-17T09:44:23.027Z,32.88
2022-08-17T09:47:08.778Z,32.77
2022-08-17T09:49:53.515Z,33.80
2022-08-17T09:52:38.197Z,33.88
2022-08-17T09:55:22.933Z,33.19
2022-08-17T09:58:08.177Z,32.00
2022-08-17T10:00:52.983Z,31.37
2022-08-17T10:03:38.267Z,31.37
2022-08-17T10:06:22.967Z,33.03
2022-08-17T10:09:08.026Z,32.57
2022-08-17T10:11:53.043Z,32.94
2022-08-17T10:14:44.145Z,31.45
2022-08-17T10:17:29.730Z,33.44
2022-08-17T10:20:14.452Z,34.26
2022-08-17T10:22:59.253Z,33.08
2022-08-17T10:25:59.517Z,33.67
2022-08-17T10:28:44.478Z,33.43
2022-08-17T10:31:36.555Z,31.34
2022-08-17T10:34:21.524Z,33.16
2022-08-17T10:37:06.097Z,32.84
2022-08-17T10:39:52.809Z,32.94
2022-08-17T10:42:38.192Z,31.88
2022-08-17T10:45:22.964Z,31.35
2022-08-17T10:48:07.886Z,29.33
2022-08-17T10:50:52.868Z,30.65
2022-08-17T10:53:37.788Z,30.87
2022-08-17T10:56:25.476Z,30.18
2022-08-17T10:59:10.224Z,30.61
2022-08-17T11:01:54.883Z,31.15
2022-08-17T11:04:40.084Z,31.16
2022-08-17T11:07:25.069Z,31.71
2022-08-17T11:10:09.792Z,32.62
2022-08-17T11:12:54.838Z,32.94
2022-08-17T11:15:39.611Z,32.52
2022-08-17T11:18:24.358Z,32.82
2022-08-17T11:21:09.208Z,32.97
2022-08-17T11:23:54.073Z,32.93
2022-08-17T11:26:38.781Z,32.37
2022-08-17T11:29:24.785Z,31.63
2022-08-17T11:32:11.111Z,31.41
2022-08-17T11:34:56.398Z,31.87
2022-08-17T11:37:41.219Z,31.77
2022-08-17T11:40:25.790Z,30.41
2022-08-17T11:43:11.615Z,31.34
2022-08-17T11:45:56.504Z,31.93
2022-08-17T11:48:41.341Z,31.99
2022-08-17T11:51:26.316Z,31.91
2022-08-17T11:57:15.685Z,31.92
2022-08-17T12:00:00.387Z,32.32
2022-08-17T12:02:48.087Z,32.52
2022-08-17T12:05:33.450Z,33.41
2022-08-17T12:08:18.085Z,33.55
2022-08-17T12:11:02.941Z,33.74
2022-08-17T12:13:47.584Z,33.63
2022-08-17T12:16:32.662Z,33.48
2022-08-17T12:19:17.843Z,33.80
2022-08-17T12:22:02.574Z,33.35
2022-08-17T12:24:47.534Z,34.17
2022-08-17T12:28:04.466Z,33.34
2022-08-17T12:30:37.243Z,32.31
2022-08-17T12:33:27.943Z,31.39
2022-08-17T12:36:13.729Z,31.66
2022-08-17T12:38:58.309Z,29.54
2022-08-17T12:41:43.167Z,30.37
2022-08-17T12:44:28.013Z,31.74
2022-08-17T12:47:14.871Z,32.78
2022-08-17T12:50:02.052Z,33.07
2022-08-17T12:52:46.651Z,33.13
2022-08-17T12:55:33.810Z,32.39
2022-08-17T12:58:19.126Z,32.65
2022-08-17T13:01:04.434Z,31.71
2022-08-17T13:03:49.224Z,31.67
2022-08-17T13:06:34.042Z,34.25
2022-08-17T13:09:18.852Z,34.90
2022-08-17T13:12:03.453Z,35.50
2022-08-17T13:14:50.442Z,34.46
2022-08-17T13:17:35.096Z,35.90
2022-08-17T13:20:19.815Z,37.39
2022-08-17T13:23:08.724Z,36.38
2022-08-17T13:25:56.921Z,34.72
2022-08-17T13:28:41.621Z,35.72
2022-08-17T13:31:26.468Z,35.80
2022-08-17T13:34:11.204Z,38.64
2022-08-17T13:36:56.027Z,39.05
2022-08-17T13:39:41.805Z,39.84
2022-08-17T13:42:26.953Z,40.75
2022-08-17T13:45:35.037Z,39.38
2022-08-17T13:48:16.413Z,38.04
2022-08-17T13:51:01.305Z,37.00
2022-08-17T13:53:45.891Z,35.45
2022-08-17T13:56:33.504Z,36.68
2022-08-17T13:59:53.078Z,35.73
2022-08-17T14:02:28.839Z,36.48
2022-08-17T14:05:13.727Z,37.34
2022-08-17T14:07:59.100Z,36.64
2022-08-17T14:10:43.865Z,36.56
2022-08-17T14:13:28.611Z,35.82
2022-08-17T14:16:13.611Z,34.93
2022-08-17T14:18:58.369Z,35.48
2022-08-17T14:21:43.182Z,35.62
2022-08-17T14:24:27.837Z,36.17
2022-08-17T14:27:12.589Z,35.96
2022-08-17T14:29:57.355Z,35.84
2022-08-17T14:32:42.199Z,36.65
2022-08-17T14:35:26.958Z,37.00
2022-08-17T14:38:11.554Z,36.63
2022-08-17T14:40:56.363Z,37.40
2022-08-17T14:43:41.221Z,37.97
2022-08-17T14:46:26.044Z,38.22
2022-08-17T14:49:10.840Z,38.52
2022-08-17T14:51:55.693Z,38.37
2022-08-17T14:54:45.550Z,38.18
2022-08-17T14:57:34.023Z,38.42
2022-08-17T15:00:19.294Z,38.61
2022-08-17T15:03:04.051Z,36.72
2022-08-17T15:05:48.937Z,36.74
2022-08-17T15:08:33.800Z,37.13
2022-08-17T15:11:18.588Z,36.64
2022-08-17T15:14:03.487Z,37.72
2022-08-17T15:16:48.277Z,37.57
2022-08-17T15:19:33.100Z,36.70
2022-08-17T15:22:17.681Z,37.08
2022-08-17T15:25:02.320Z,37.64
2022-08-17T15:27:46.992Z,37.98
2022-08-17T15:30:32.213Z,37.34
2022-08-17T15:33:16.895Z,36.48
2022-08-17T15:36:01.558Z,37.37
2022-08-17T15:38:46.567Z,37.53
2022-08-17T15:41:31.379Z,36.43
2022-08-17T15:44:16.181Z,37.91
2022-08-17T15:47:00.875Z,37.08
2022-08-17T15:49:45.672Z,37.21
2022-08-17T15:52:30.386Z,36.08
2022-08-17T15:55:15.316Z,37.50
2022-08-17T15:57:59.940Z,36.12
2022-08-17T16:01:14.108Z,36.10
2022-08-17T16:04:06.921Z,36.69
2022-08-17T16:06:52.534Z,37.58
2022-08-17T16:09:37.706Z,37.10
2022-08-17T16:12:22.509Z,37.88
2022-08-17T16:15:07.162Z,37.46
2022-08-17T16:17:52.203Z,36.91
2022-08-17T16:20:37.197Z,36.84
2022-08-17T16:23:22.105Z,36.73
2022-08-17T16:26:06.805Z,37.06
2022-08-17T16:28:51.736Z,37.82
2022-08-17T16:31:36.375Z,37.64
2022-08-17T16:34:21.153Z,38.06
2022-08-17T16:37:06.005Z,37.87
2022-08-17T16:39:50.771Z,38.08
2022-08-17T16:42:36.070Z,37.07
2022-08-17T16:45:20.775Z,37.23
2022-08-17T16:48:05.552Z,35.91
2022-08-17T16:51:03.126Z,35.80
2022-08-17T16:53:49.241Z,36.17
2022-08-17T16:56:44.143Z,35.20
2022-08-17T16:59:38.859Z,35.56
2022-08-17T17:02:27.603Z,36.16
2022-08-17T17:05:12.363Z,36.39
2022-08-17T17:07:57.053Z,37.74
2022-08-17T17:10:41.923Z,39.09
2022-08-17T17:13:26.605Z,39.46
2022-08-17T17:16:11.467Z,38.66
2022-08-17T17:18:56.143Z,38.87
2022-08-17T17:21:40.855Z,39.35
2022-08-17T17:24:25.672Z,37.82
2022-08-17T17:27:14.893Z,37.66
2022-08-17T17:29:59.676Z,36.78
2022-08-17T17:32:44.429Z,37.29
2022-08-17T17:35:29.157Z,38.99
2022-08-17T17:38:13.850Z,38.04
2022-08-17T17:41:02.385Z,37.91
2022-08-17T17:43:48.019Z,37.92
2022-08-17T17:46:32.688Z,36.75
2022-08-17T17:49:17.506Z,36.72
2022-08-17T17:52:10.115Z,37.00
2022-08-17T17:54:56.995Z,36.82
2022-08-17T17:57:41.712Z,36.04
2022-08-17T18:00:26.607Z,37.80
2022-08-17T18:03:11.283Z,36.99
2022-08-17T18:05:56.210Z,37.20
2022-08-17T18:08:41.419Z,36.54
2022-08-17T18:11:33.050Z,35.62
2022-08-17T18:14:20.209Z,35.94
2022-08-17T18:17:04.905Z,35.15
2022-08-17T18:19:49.550Z,34.97
2022-08-17T18:22:34.238Z,33.74
2022-08-17T18:25:18.927Z,33.82
2022-08-17T18:28:03.899Z,32.33
2022-08-17T18:30:48.607Z,32.72
2022-08-17T18:33:33.527Z,32.60
2022-08-17T18:36:18.282Z,33.07
2022-08-17T18:39:03.119Z,33.83
2022-08-17T18:41:47.879Z,34.13
2022-08-17T18:44:32.779Z,33.83
2022-08-17T18:47:17.464Z,34.22
2022-08-17T18:50:02.099Z,35.37
2022-08-17T18:52:46.921Z,37.19
2022-08-17T18:55:31.667Z,37.96
2022-08-17T18:58:16.636Z,38.34
2022-08-17T19:01:01.433Z,38.38
2022-08-17T19:03:46.309Z,38.90
2022-08-17T19:06:31.043Z,43.51
2022-08-17T19:09:15.857Z,42.93
2022-08-17T19:12:01.717Z,47.97
2022-08-17T19:14:46.766Z,48.64
2022-08-17T19:17:31.662Z,45.45
2022-08-17T19:20:16.364Z,46.54
2022-08-17T19:23:01.070Z,47.88
2022-08-17T19:25:45.647Z,48.70
2022-08-17T19:28:30.443Z,48.43
2022-08-17T19:31:15.252Z,48.69
2022-08-17T19:33:59.874Z,48.69
2022-08-17T19:36:44.640Z,50.22
2022-08-17T19:39:38.055Z,50.71
2022-08-17T19:42:23.499Z,52.63
2022-08-17T19:45:08.233Z,52.67
2022-08-17T19:48:02.790Z,52.63
2022-08-17T19:50:48.355Z,53.31
2022-08-17T19:53:54.047Z,53.99
2022-08-17T19:56:38.316Z,54.92
2022-08-17T19:59:23.200Z,56.08
2022-08-17T20:02:07.950Z,56.41
2022-08-17T20:04:52.654Z,56.96
2022-08-17T20:07:37.606Z,56.23
2022-08-17T20:10:22.409Z,56.02
2022-08-17T20:13:07.104Z,57.54
2022-08-17T20:15:51.901Z,58.41
2022-08-17T20:18:37.108Z,55.68
2022-08-17T20:21:21.863Z,56.42
2022-08-17T20:24:06.596Z,55.64
2022-08-17T20:26:55.225Z,56.85
2022-08-17T20:29:43.414Z,55.65
2022-08-17T20:32:28.091Z,56.96
2022-08-17T20:35:12.859Z,56.92
2022-08-17T20:37:57.542Z,55.09
2022-08-17T20:40:42.299Z,56.15
2022-08-17T20:43:27.068Z,56.09
2022-08-17T20:46:11.947Z,57.26
2022-08-17T20:48:56.816Z,59.04
2022-08-17T20:51:41.482Z,59.51
2022-08-17T20:54:45.714Z,59.86
2022-08-17T20:57:30.445Z,60.08
2022-08-17T21:00:15.194Z,61.70
2022-08-17T21:02:59.983Z,61.80
2022-08-17T21:05:44.737Z,62.94
2022-08-17T21:08:37.069Z,61.86
2022-08-17T21:11:21.958Z,62.99
2022-08-17T21:14:26.775Z,62.47
2022-08-17T21:17:14.434Z,62.39
2022-08-17T21:20:14.547Z,63.57
2022-08-17T21:22:59.442Z,63.21
2022-08-17T21:25:44.337Z,65.02
2022-08-17T21:28:33.674Z,64.17
2022-08-17T21:31:19.196Z,64.06
2022-08-17T21:34:05.993Z,62.69
2022-08-17T21:36:51.495Z,64.00
2022-08-17T21:39:36.590Z,65.32
2022-08-17T21:42:21.584Z,67.70
2022-08-17T21:45:06.349Z,67.57
2022-08-17T21:47:51.257Z,68.30
2022-08-17T21:50:36.452Z,67.02
2022-08-17T21:53:21.372Z,65.79
2022-08-17T21:56:06.193Z,66.39
2022-08-17T21:58:50.799Z,65.95
2022-08-17T22:01:35.701Z,66.89
2022-08-17T22:04:20.717Z,65.27
2022-08-17T22:07:05.544Z,65.00
2022-08-17T22:09:50.229Z,64.67
2022-08-17T22:12:34.957Z,64.46
2022-08-17T22:15:19.619Z,64.36
2022-08-17T22:18:04.496Z,65.43
2022-08-17T22:20:49.269Z,65.30
2022-08-17T22:23:34.026Z,64.27
2022-08-17T22:26:18.777Z,65.96
2022-08-17T22:29:03.569Z,65.20
2022-08-17T22:31:48.476Z,66.76
2022-08-17T22:34:33.112Z,66.89
2022-08-17T22:37:17.846Z,67.93
2022-08-17T22:40:02.495Z,67.22
2022-08-17T22:42:47.402Z,67.50
2022-08-17T22:45:32.011Z,67.10
2022-08-17T22:48:16.968Z,65.99
2022-08-17T22:51:01.674Z,66.95
2022-08-17T22:53:46.415Z,64.82
2022-08-17T22:56:32.305Z,63.77
2022-08-17T22:59:17.048Z,63.36
2022-08-17T23:02:01.757Z,63.37
2022-08-17T23:04:46.516Z,62.82
2022-08-17T23:07:31.417Z,62.70
2022-08-17T23:10:16.225Z,63.84
2022-08-17T23:13:01.046Z,63.66
2022-08-17T23:15:46.273Z,62.97
2022-08-17T23:18:31.002Z,62.38
2022-08-17T23:21:16.108Z,61.98
2022-08-17T23:24:11.937Z,61.75
2022-08-17T23:26:56.585Z,60.90
2022-08-17T23:29:41.434Z,60.48
2022-08-17T23:32:26.090Z,59.24
2022-08-17T23:35:10.916Z,58.60
2022-08-17T23:37:55.742Z,58.93
2022-08-17T23:40:40.715Z,58.19
2022-08-17T23:43:28.150Z,57.96
2022-08-17T23:46:13.148Z,60.05
2022-08-17T23:48:57.817Z,60.53
2022-08-17T23:51:42.820Z,61.13
2022-08-17T23:54:27.636Z,61.72
2022-08-17T23:57:12.447Z,62.21
2022-08-17T23:59:57.260Z,63.53
